Airport Name : Bratsk

Other Name : Bratsk

ICAO : UIBB

IATA : BTK

FAA :

Latitude : 56.370556

Longitude : 101.698331

Country : Russia

Local Date and Time : 1/16/2019 12:00:00 PM

 

TAF (Terminal Aerodrome Forecast)

TAF UIBB 160200Z 1603/1703 20005MPS 9999 SCT020 FM160600 29006G11MPS 9999 -SHSN DRSN BKN012CB TEMPO 1606/1618 1900 SHSN

 

METAR (METeorological Aerodrome Report)

UIBB 160330Z 20001MPS 8000 NSC M19/M21 Q1014 R30/490137 NOSIG RMK QFE717/0956

UIBB 160300Z 19001MPS 9999 NSC M19/M22 Q1013 R30/490137 NOSIG RMK QFE717/0956

UIBB 160230Z 00000MPS 9999 NSC M20/M22 Q1013 R30/490137 NOSIG RMK QFE717/0956

UIBB 160200Z 00000MPS 9999 NSC M20/M22 Q1013 R30/490137 NOSIG RMK QFE717/0956

UIBB 160130Z 00000MPS 9999 NSC M20/M22 Q1013 R30/490137 NOSIG RMK QFE717/0956

UIBB 160100Z 00000MPS 9999 NSC M21/M23 Q1014 R30/490137 NOSIG RMK QFE717/0956

UIBB 160030Z 00000MPS 9999 NSC M20/M23 Q1013 R30/490137 TEMPO 0400 FZFG VV001 RMK QFE717/0956